Time,TemperatureF,DewpointF,PressureIn,WindDirection,WindDirectionDegrees,WindSpeedMPH,WindSpeedGustMPH,Humidity,HourlyPrecipIn,Conditions,Clouds,dailyrainin,SoftwareType,DateUTC
2013-03-02 00:14:00,45.4,28.0,30.20,WSW,237,6.0,9.0,50,0.00,,,0.00,weatherlink.com 1.10,2013-03-02 07:14:00,
2013-03-02 00:29:00,44.7,27.0,30.20,WSW,251,7.0,9.0,51,0.00,,,0.00,weatherlink.com 1.10,2013-03-02 07:29:00,
2013-03-02 00:44:00,44.2,27.0,30.20,WSW,240,7.0,11.0,52,0.00,,,0.00,weatherlink.com 1.10,2013-03-02 07:44:00,
2013-03-02 00:59:00,44.1,28.0,30.20,West,265,8.0,9.0,53,0.00,,,0.00,weatherlink.com 1.10,2013-03-02 07:59:00,
2013-03-02 01:14:00,43.2,27.0,30.19,West,277,4.0,7.0,54,0.00,,,0.00,weatherlink.com 1.10,2013-03-02 08:14:00,
2013-03-02 01:29:00,42.9,28.0,30.19,WNW,288,5.0,7.0,55,0.00,,,0.00,weatherlink.com 1.10,2013-03-02 08:29:00,
2013-03-02 01:44:00,42.9,28.0,30.20,West,264,4.0,6.0,55,0.00,,,0.00,weatherlink.com 1.10,2013-03-02 08:44:00,
2013-03-02 01:59:00,42.9,28.0,30.20,West,278,2.0,6.0,55,0.00,,,0.00,weatherlink.com 1.10,2013-03-02 08:59:00,
2013-03-02 02:14:00,42.4,28.0,30.20,WSW,243,3.0,5.0,56,0.00,,,0.00,weatherlink.com 1.10,2013-03-02 09:14:00,
2013-03-02 02:29:00,42.7,27.0,30.20,WSW,249,3.0,6.0,55,0.00,,,0.00,weatherlink.com 1.10,2013-03-02 09:29:00,
2013-03-02 02:44:00,42.5,27.0,30.20,WSW,250,4.0,6.0,55,0.00,,,0.00,weatherlink.com 1.10,2013-03-02 09:44:00,
2013-03-02 02:59:00,42.4,27.0,30.19,WSW,248,4.0,6.0,55,0.00,,,0.00,weatherlink.com 1.10,2013-03-02 09:59:00,
2013-03-02 03:30:00,42.9,28.0,30.18,WSW,238,5.0,6.0,55,0.00,,,0.00,weatherlink.com 1.10,2013-03-02 10:30:00,
2013-03-02 03:44:00,43.5,28.0,30.17,West,265,6.0,8.0,54,0.00,,,0.00,weatherlink.com 1.10,2013-03-02 10:44:00,
2013-03-02 03:59:00,43.3,27.0,30.17,West,271,3.0,9.0,54,0.00,,,0.00,weatherlink.com 1.10,2013-03-02 10:59:00,
2013-03-02 04:14:00,43.5,28.0,30.17,WSW,246,3.0,6.0,54,0.00,,,0.00,weatherlink.com 1.10,2013-03-02 11:14:00,
2013-03-02 04:29:00,43.9,28.0,30.17,WSW,239,5.0,7.0,53,0.00,,,0.00,weatherlink.com 1.10,2013-03-02 11:29:00,
2013-03-02 04:44:00,43.6,27.0,30.17,WSW,255,4.0,7.0,53,0.00,,,0.00,weatherlink.com 1.10,2013-03-02 11:44:00,
2013-03-02 04:59:00,42.8,27.0,30.17,WSW,255,5.0,8.0,55,0.00,,,0.00,weatherlink.com 1.10,2013-03-02 11:59:00,
2013-03-02 05:14:00,42.7,27.0,30.17,WSW,252,9.0,12.0,55,0.00,,,0.00,weatherlink.com 1.10,2013-03-02 12:14:00,
2013-03-02 05:29:00,42.6,27.0,30.17,WSW,255,4.0,10.0,55,0.00,,,0.00,weatherlink.com 1.10,2013-03-02 12:29:00,
2013-03-02 05:44:00,42.4,27.0,30.17,WSW,258,3.0,11.0,55,0.00,,,0.00,weatherlink.com 1.10,2013-03-02 12:44:00,
2013-03-02 05:59:00,42.7,27.0,30.16,West,271,3.0,10.0,54,0.00,,,0.00,weatherlink.com 1.10,2013-03-02 12:59:00,
2013-03-02 06:14:00,42.2,27.0,30.16,WSW,248,4.0,8.0,55,0.00,,,0.00,weatherlink.com 1.10,2013-03-02 13:14:00,
2013-03-02 06:29:00,41.3,27.0,30.16,WSW,250,3.0,8.0,57,0.00,,,0.00,weatherlink.com 1.10,2013-03-02 13:29:00,
2013-03-02 06:45:00,40.6,27.0,30.16,WSW,255,6.0,7.0,58,0.00,,,0.00,weatherlink.com 1.10,2013-03-02 13:45:00,
2013-03-02 07:00:00,40.2,27.0,30.16,West,273,4.0,11.0,59,0.00,,,0.00,weatherlink.com 1.10,2013-03-02 14:00:00,
2013-03-02 07:15:00,40.3,27.0,30.16,WSW,239,3.0,10.0,59,0.00,,,0.00,weatherlink.com 1.10,2013-03-02 14:15:00,
2013-03-02 07:30:00,41.0,27.0,30.15,WSW,249,5.0,9.0,58,0.00,,,0.00,weatherlink.com 1.10,2013-03-02 14:30:00,
2013-03-02 07:45:00,40.7,27.0,30.16,WSW,240,5.0,7.0,58,0.00,,,0.00,weatherlink.com 1.10,2013-03-02 14:45:00,
2013-03-02 08:00:00,40.3,27.0,30.16,WSW,253,1.0,4.0,60,0.00,,,0.00,weatherlink.com 1.10,2013-03-02 15:00:00,
2013-03-02 08:15:00,40.3,28.0,30.15,WSW,238,2.0,5.0,61,0.00,,,0.00,weatherlink.com 1.10,2013-03-02 15:15:00,
2013-03-02 08:30:00,41.1,28.0,30.15,West,269,1.0,3.0,59,0.00,,,0.00,weatherlink.com 1.10,2013-03-02 15:30:00,
2013-03-02 08:45:00,41.8,28.0,30.15,West,261,4.0,6.0,59,0.00,,,0.00,weatherlink.com 1.10,2013-03-02 15:45:00,
2013-03-02 09:00:00,42.8,28.0,30.14,West,274,3.0,7.0,57,0.00,,,0.00,weatherlink.com 1.10,2013-03-02 16:00:00,
2013-03-02 09:15:00,44.5,29.0,30.13,West,275,3.0,5.0,55,0.00,,,0.00,weatherlink.com 1.10,2013-03-02 16:15:00,
2013-03-02 09:30:00,46.2,29.0,30.13,WSW,257,6.0,9.0,51,0.00,,,0.00,weatherlink.com 1.10,2013-03-02 16:30:00,
2013-03-02 09:45:00,49.0,29.0,30.12,WSW,240,9.0,11.0,47,0.00,,,0.00,weatherlink.com 1.10,2013-03-02 16:45:00,
2013-03-02 10:00:00,51.5,28.0,30.11,West,278,6.0,14.0,41,0.00,,,0.00,weatherlink.com 1.10,2013-03-02 17:00:00,
2013-03-02 10:15:00,52.4,30.0,30.11,West,279,3.0,10.0,42,0.00,,,0.00,weatherlink.com 1.10,2013-03-02 17:15:00,
2013-03-02 10:30:00,53.8,29.0,30.09,WSW,253,7.0,11.0,39,0.00,,,0.00,weatherlink.com 1.10,2013-03-02 17:30:00,
2013-03-02 10:46:00,55.8,28.0,30.08,West,262,14.0,17.0,35,0.00,,,0.00,weatherlink.com 1.10,2013-03-02 17:46:00,
2013-03-02 11:00:00,57.0,29.0,30.07,SW,226,8.0,16.0,34,0.00,,,0.00,weatherlink.com 1.10,2013-03-02 18:00:00,
2013-03-02 11:15:00,57.9,29.0,30.06,WSW,246,10.0,16.0,33,0.00,,,0.00,weatherlink.com 1.10,2013-03-02 18:15:00,
2013-03-02 11:30:00,59.5,29.0,30.05,WNW,286,9.0,17.0,31,0.00,,,0.00,weatherlink.com 1.10,2013-03-02 18:30:00,
2013-03-02 11:45:00,59.4,28.0,30.04,WNW,285,7.0,17.0,30,0.00,,,0.00,weatherlink.com 1.10,2013-03-02 18:45:00,
2013-03-02 12:00:00,60.7,28.0,30.03,West,261,10.0,15.0,29,0.00,,,0.00,weatherlink.com 1.10,2013-03-02 19:00:00,
2013-03-02 12:16:00,61.8,28.0,30.02,West,272,11.0,14.0,28,0.00,,,0.00,weatherlink.com 1.10,2013-03-02 19:16:00,
2013-03-02 12:31:00,63.0,28.0,30.01,WNW,283,5.0,14.0,27,0.00,,,0.00,weatherlink.com 1.10,2013-03-02 19:31:00,
2013-03-02 12:46:00,63.1,27.0,30.00,WSW,249,11.0,16.0,26,0.00,,,0.00,weatherlink.com 1.10,2013-03-02 19:46:00,
2013-03-02 13:01:00,64.0,27.0,29.99,WSW,249,8.0,20.0,25,0.00,,,0.00,weatherlink.com 1.10,2013-03-02 20:01:00,
2013-03-02 13:16:00,64.2,27.0,29.98,NW,305,5.0,11.0,24,0.00,,,0.00,weatherlink.com 1.10,2013-03-02 20:16:00,
2013-03-02 13:31:00,66.1,24.0,29.96,NW,307,20.0,25.0,20,0.00,,,0.00,weatherlink.com 1.10,2013-03-02 20:31:00,
2013-03-02 13:46:00,66.6,22.0,29.96,NW,316,14.0,26.0,18,0.00,,,0.00,weatherlink.com 1.10,2013-03-02 20:46:00,
2013-03-02 14:01:00,66.7,22.0,29.96,NNW,340,24.0,31.0,18,0.00,,,0.00,weatherlink.com 1.10,2013-03-02 21:01:00,
2013-03-02 14:16:00,66.9,21.0,29.95,NW,320,19.0,26.0,17,0.00,,,0.00,weatherlink.com 1.10,2013-03-02 21:16:00,
2013-03-02 14:31:00,66.7,19.0,29.95,NW,314,19.0,29.0,16,0.00,,,0.00,weatherlink.com 1.10,2013-03-02 21:31:00,
2013-03-02 14:46:00,66.5,20.0,29.95,WNW,292,17.0,34.0,17,0.00,,,0.00,weatherlink.com 1.10,2013-03-02 21:46:00,
2013-03-02 15:01:00,65.8,21.0,29.95,NW,306,22.0,30.0,18,0.00,,,0.00,weatherlink.com 1.10,2013-03-02 22:01:00,
2013-03-02 15:16:00,64.9,22.0,29.95,WNW,297,19.0,28.0,19,0.00,,,0.00,weatherlink.com 1.10,2013-03-02 22:16:00,
2013-03-02 15:31:00,64.5,22.0,29.95,WNW,297,10.0,27.0,20,0.00,,,0.00,weatherlink.com 1.10,2013-03-02 22:31:00,
2013-03-02 15:46:00,64.0,23.0,29.94,WNW,291,16.0,25.0,21,0.00,,,0.00,weatherlink.com 1.10,2013-03-02 22:46:00,
2013-03-02 16:01:00,63.3,24.0,29.94,WNW,302,14.0,20.0,22,0.00,,,0.00,weatherlink.com 1.10,2013-03-02 23:01:00,
2013-03-02 16:16:00,62.5,26.0,29.94,West,268,9.0,13.0,25,0.00,,,0.00,weatherlink.com 1.10,2013-03-02 23:16:00,
2013-03-02 16:31:00,61.1,28.0,29.93,WSW,255,4.0,9.0,28,0.00,,,0.00,weatherlink.com 1.10,2013-03-02 23:31:00,
2013-03-02 16:46:00,60.1,28.0,29.93,SW,236,4.0,9.0,30,0.00,,,0.00,weatherlink.com 1.10,2013-03-02 23:46:00,
2013-03-02 17:01:00,59.4,28.0,29.93,WSW,245,5.0,9.0,30,0.00,,,0.00,weatherlink.com 1.10,2013-03-03 00:01:00,
2013-03-02 17:16:00,58.9,27.0,29.93,West,269,3.0,8.0,30,0.00,,,0.00,weatherlink.com 1.10,2013-03-03 00:16:00,
2013-03-02 17:31:00,58.4,28.0,29.92,WSW,250,5.0,8.0,31,0.00,,,0.00,weatherlink.com 1.10,2013-03-03 00:31:00,
2013-03-02 17:46:00,57.3,27.0,29.92,WNW,290,4.0,11.0,32,0.00,,,0.00,weatherlink.com 1.10,2013-03-03 00:46:00,
2013-03-02 18:01:00,59.0,26.0,29.92,WNW,284,5.0,12.0,28,0.00,,,0.00,weatherlink.com 1.10,2013-03-03 01:01:00,
2013-03-02 18:16:00,58.6,26.0,29.91,WNW,296,7.0,12.0,29,0.00,,,0.00,weatherlink.com 1.10,2013-03-03 01:16:00,
2013-03-02 18:31:00,58.6,25.0,29.91,WSW,245,6.0,12.0,28,0.00,,,0.00,weatherlink.com 1.10,2013-03-03 01:31:00,
2013-03-02 18:46:00,58.2,25.0,29.90,WNW,300,3.0,9.0,28,0.00,,,0.00,weatherlink.com 1.10,2013-03-03 01:46:00,
2013-03-02 19:01:00,58.3,25.0,29.90,WNW,289,8.0,14.0,28,0.00,,,0.00,weatherlink.com 1.10,2013-03-03 02:01:00,
2013-03-02 19:16:00,58.2,27.0,29.90,NW,307,12.0,14.0,30,0.00,,,0.00,weatherlink.com 1.10,2013-03-03 02:16:00,
2013-03-02 19:31:00,57.8,28.0,29.89,WNW,302,7.0,12.0,32,0.00,,,0.00,weatherlink.com 1.10,2013-03-03 02:31:00,
2013-03-02 19:46:00,57.2,28.0,29.89,NW,314,6.0,11.0,33,0.00,,,0.00,weatherlink.com 1.10,2013-03-03 02:46:00,
2013-03-02 20:01:00,56.4,28.0,29.88,NW,311,6.0,11.0,34,0.00,,,0.00,weatherlink.com 1.10,2013-03-03 03:01:00,
2013-03-02 20:16:00,55.9,29.0,29.86,NW,318,4.0,13.0,36,0.00,,,0.00,weatherlink.com 1.10,2013-03-03 03:16:00,
2013-03-02 20:31:00,53.6,28.0,29.86,ESE,109,4.0,7.0,37,0.00,,,0.00,weatherlink.com 1.10,2013-03-03 03:31:00,
2013-03-02 20:46:00,52.2,28.0,29.86,ENE,77,0.0,7.0,40,0.00,,,0.00,weatherlink.com 1.10,2013-03-03 03:46:00,
2013-03-02 21:01:00,52.5,29.0,29.86,SW,227,3.0,3.0,41,0.00,,,0.00,weatherlink.com 1.10,2013-03-03 04:01:00,
2013-03-02 21:16:00,52.5,29.0,29.86,SSW,199,2.0,7.0,41,0.00,,,0.00,weatherlink.com 1.10,2013-03-03 04:16:00,
2013-03-02 21:33:00,51.1,30.0,29.85,SSW,196,2.0,3.0,44,0.00,,,0.00,weatherlink.com 1.10,2013-03-03 04:33:00,
2013-03-02 21:47:00,48.8,28.0,29.85,East,96,1.0,4.0,45,0.00,,,0.00,weatherlink.com 1.10,2013-03-03 04:47:00,
2013-03-02 22:02:00,45.5,28.0,29.84,SSE,158,1.0,1.0,51,0.00,,,0.00,weatherlink.com 1.10,2013-03-03 05:02:00,
2013-03-02 22:17:00,45.5,29.0,29.84,South,172,0.0,3.0,53,0.00,,,0.00,weatherlink.com 1.10,2013-03-03 05:17:00,
2013-03-02 22:32:00,44.2,29.0,29.83,SSW,205,0.0,2.0,55,0.00,,,0.00,weatherlink.com 1.10,2013-03-03 05:32:00,
2013-03-02 22:47:00,43.6,29.0,29.83,West,264,1.0,6.0,56,0.00,,,0.00,weatherlink.com 1.10,2013-03-03 05:47:00,
2013-03-02 23:02:00,43.4,28.0,29.82,West,279,0.0,1.0,56,0.00,,,0.00,weatherlink.com 1.10,2013-03-03 06:02:00,
2013-03-02 23:17:00,42.9,29.0,29.82,WSW,255,0.0,1.0,59,0.00,,,0.00,weatherlink.com 1.10,2013-03-03 06:17:00,
2013-03-02 23:32:00,41.7,28.0,29.81,WNW,290,1.0,2.0,59,0.00,,,0.00,weatherlink.com 1.10,2013-03-03 06:32:00,
2013-03-02 23:47:00,42.3,29.0,29.81,WSW,256,2.0,3.0,60,0.00,,,0.00,weatherlink.com 1.10,2013-03-03 06:47:00,